Aérodrome :
LOGIN :

S'inscrire | Disclaimer

   EN    FR    IT 

 










Légende :    VFR   VFR Marginal   IFR   IFR Intensif   IFR Très Intensif
Visi : 
Plafond : 
>= 8 km
>= 3000ft
5 à 8 km
1000 à 3000 ft
1500m à 5 km
500 à 1000 ft
800 à 1500m
200 à 500 ft
< 800m
< 200 ft
Symboles :   Orages  Brouillard  Fortes neiges  Fortes précipitations  Vent > 20 kt
SIGMETs :   Divers  Orages  Givrage  Turbulence  Onde Orograph.  Cendres Volcan.






- Altitude de l'aérodrome : 3 ft
- Code IATA : LWR


EHLW - Leuuwarden Air Base

DERNIER METAR :
  • 251433Z AUTO 27019G29KT 240V310 4700 -RA FEW015CB SCT020 BKN026 04/02 Q0994 GRN 25022KT 9999 SCT025 BKN035 TEMPO 25028G39KT 4500 SHRA FEW015 SCT018CB BKN022

METARs EXPIRÉS :
  • 251425Z AUTO 27016KT 240V310 9999 -RA FEW015CB BKN021 OVC033 05/03 Q0994 RERA REDZ WHT 25022KT 9999 SCT025 BKN035 TEMPO 25028G39KT 4500 SHRA FEW015 SCT018CB BKN022
  • 251410Z AUTO 27016G26KT 230V290 9999 -RADZ FEW011 FEW015CB SCT026 BKN031 04/02 Q0994 BLU 25022KT 9999 SCT025 BKN035 TEMPO 25028G39KT 4500 SHRA FEW015 SCT018CB BKN022
  • 251359Z AUTO 25018G28KT 220V280 4300 -RA FEW015CB SCT016 BKN025 05/02 Q0995 GRN 25022KT 9999 SCT025 BKN035 TEMPO 25028G39KT 4500 SHRA FEW015 SCT018CB BKN022
  • 251331Z AUTO 26021G33KT 230V300 9999 -DZ FEW022 BKN025 BKN032 06/02 Q0995 BLU 25022KT 9999 SCT025 BKN035 TEMPO 25028G39KT 4500 SHRA FEW015 SCT018CB BKN022
  • 251325Z AUTO 27018KT 9999 -RA FEW002 SCT022 BKN025 06/03 Q0995 RERA REDZ WHT 25022KT 9999 SCT025 BKN035 TEMPO 25028G39KT 4500 SHRA FEW015 SCT018CB BKN022
  • 251319Z AUTO 26020G30KT 9000 DZRA FEW002 SCT021 BKN025 05/02 Q0995 WHT 25022KT 9999 SCT025 BKN035 TEMPO 25028G39KT 4500 SHRA FEW015 SCT018CB BKN022
  • 251308Z AUTO 26017KT 230V290 9999 SCT020 BKN023 OVC028 06/03 Q0995 WHT 25022KT 9999 SCT025 BKN035 TEMPO 25028G39KT 4500 SHRA FEW015 SCT018CB BKN022
  • 251255Z AUTO 26020G33KT 230V290 8000 HZ SCT019 SCT027 BKN033 06/02 Q0995 WHT 25022KT 9999 SCT025 BKN035 TEMPO 25028G39KT 4500 SHRA FEW015 SCT018CB BKN022
  • 251234Z AUTO 26023KT 9999 FEW021 BKN024 BKN029 07/02 Q0995 WHT 25022KT 9999 SCT025 BKN035 TEMPO 25028G39KT 4500 SHRA FEW015 SCT018CB BKN022
  • 251225Z AUTO 26022KT 230V290 9999 SCT020 BKN026 BKN030 07/02 Q0995 WHT 25022KT 9999 SCT025 BKN035 TEMPO 25028G39KT 4500 SHRA FEW015 SCT018CB BKN022
  • 251209Z AUTO 26022KT 220V290 9999 SCT021 SCT026 BKN046 07/03 Q0995 WHT 25022KT 9999 SCT025 BKN035 TEMPO 25028G39KT 4500 SHRA FEW015 SCT018CB BKN022
  • 251155Z AUTO 26022G32KT 9999 FEW023 BKN037 BKN044 07/02 Q0995 REDZ BLU 25022KT 9999 SCT025 BKN035 TEMPO 25028G39KT 4500 SHRA FEW015 SCT018CB BKN022
  • 251137Z AUTO 26026KT 9999 -DZ FEW016 SCT025 BKN034 06/03 Q0995 BLU 25022KT 9999 SCT025 BKN035 TEMPO 25028G39KT 4500 SHRA FEW015 SCT018CB BKN022

TAF TAF EHLW
Valide du 25 à 14h jusqu'au 26 à 02h UTC


251327Z 2514/2602 26020G30KT 9999 SCT022
TEMPO 2514/2602 4500 SHRA FEW010 SCT018CB BKN022
PROB40
TEMPO 2514/2520 3000 TSRAGS SCT007 SCT018CB BKN020
BECMG 2516/2519 25009KT
TEMPO 2518/2602 27010G22KT
PROB40
TEMPO 2520/2602 2000 TSRAGS TSRASN SCT004 SCT018CB BKN020



MET'MAP, la Météo Aéronautique d'un coup d'oeil ! - Copyright ORBIFLY Décembre 2007 - Disclaimer

ORBIFLY MET'MAP TEAM :

Programmation & Développement : Alexandra Zaïnal
Sur une idée originale de : Baudouin d'Aumeries
Assistance à la programmation : Marc-Olivier Méhu
Soutien technique & logistique : Manuel Goepfert

Contact : metmap@orbifly.com




SOURCES & CREDITS :

   NOAA